sensor_id;sensor_type;location;lat;lon;timestamp;temperature;humidity
39427;DHT22;25938;48.470;1.486;2023-04-24T00:01:15;17.10;56.50
39427;DHT22;25938;48.470;1.486;2023-04-24T00:03:42;17.10;56.50
39427;DHT22;25938;48.470;1.486;2023-04-24T00:06:08;17.10;56.50
39427;DHT22;25938;48.470;1.486;2023-04-24T00:08:34;17.00;56.30
39427;DHT22;25938;48.470;1.486;2023-04-24T00:11:00;17.10;56.40
39427;DHT22;25938;48.470;1.486;2023-04-24T00:13:26;17.10;56.40
39427;DHT22;25938;48.470;1.486;2023-04-24T00:15:54;17.10;56.30
39427;DHT22;25938;48.470;1.486;2023-04-24T00:18:19;17.00;56.20
39427;DHT22;25938;48.470;1.486;2023-04-24T00:20:45;17.00;56.20
39427;DHT22;25938;48.470;1.486;2023-04-24T00:23:12;17.00;56.20
39427;DHT22;25938;48.470;1.486;2023-04-24T00:25:38;17.00;56.10
39427;DHT22;25938;48.470;1.486;2023-04-24T00:28:03;17.00;56.10
39427;DHT22;25938;48.470;1.486;2023-04-24T00:30:29;17.00;56.10
39427;DHT22;25938;48.470;1.486;2023-04-24T00:32:55;17.00;56.10
39427;DHT22;25938;48.470;1.486;2023-04-24T00:35:21;16.90;56.00
39427;DHT22;25938;48.470;1.486;2023-04-24T00:37:46;17.00;56.10
39427;DHT22;25938;48.470;1.486;2023-04-24T00:40:12;16.90;56.00
39427;DHT22;25938;48.470;1.486;2023-04-24T00:42:39;17.00;56.10
39427;DHT22;25938;48.470;1.486;2023-04-24T00:45:06;16.90;55.90
39427;DHT22;25938;48.470;1.486;2023-04-24T00:47:33;16.90;55.90
39427;DHT22;25938;48.470;1.486;2023-04-24T00:50:00;16.90;55.90
39427;DHT22;25938;48.470;1.486;2023-04-24T00:52:26;17.00;56.00
39427;DHT22;25938;48.470;1.486;2023-04-24T00:54:52;16.90;55.90
39427;DHT22;25938;48.470;1.486;2023-04-24T00:57:17;16.90;55.90
39427;DHT22;25938;48.470;1.486;2023-04-24T00:59:43;16.90;55.90
39427;DHT22;25938;48.470;1.486;2023-04-24T01:02:10;16.90;55.90
39427;DHT22;25938;48.470;1.486;2023-04-24T01:04:36;16.90;56.00
39427;DHT22;25938;48.470;1.486;2023-04-24T01:07:02;16.90;56.10
39427;DHT22;25938;48.470;1.486;2023-04-24T01:09:28;16.90;56.10
39427;DHT22;25938;48.470;1.486;2023-04-24T01:11:54;16.90;56.20
39427;DHT22;25938;48.470;1.486;2023-04-24T01:14:20;16.80;56.20
39427;DHT22;25938;48.470;1.486;2023-04-24T01:16:46;16.90;56.30
39427;DHT22;25938;48.470;1.486;2023-04-24T01:19:13;16.80;56.40
39427;DHT22;25938;48.470;1.486;2023-04-24T01:21:40;16.90;56.40
39427;DHT22;25938;48.470;1.486;2023-04-24T01:24:07;16.80;56.40
39427;DHT22;25938;48.470;1.486;2023-04-24T01:26:33;16.80;56.50
39427;DHT22;25938;48.470;1.486;2023-04-24T01:28:59;16.80;56.50
39427;DHT22;25938;48.470;1.486;2023-04-24T01:31:24;16.80;56.50
39427;DHT22;25938;48.470;1.486;2023-04-24T01:33:51;16.80;56.50
39427;DHT22;25938;48.470;1.486;2023-04-24T01:36:17;16.80;56.50
39427;DHT22;25938;48.470;1.486;2023-04-24T01:38:44;16.80;56.50
39427;DHT22;25938;48.470;1.486;2023-04-24T01:41:10;16.80;56.50
39427;DHT22;25938;48.470;1.486;2023-04-24T01:43:36;16.80;56.50
39427;DHT22;25938;48.470;1.486;2023-04-24T01:46:01;16.80;56.60
39427;DHT22;25938;48.470;1.486;2023-04-24T01:48:27;16.80;56.60
39427;DHT22;25938;48.470;1.486;2023-04-24T01:50:53;16.80;56.60
39427;DHT22;25938;48.470;1.486;2023-04-24T01:53:19;16.80;56.60
39427;DHT22;25938;48.470;1.486;2023-04-24T01:55:45;16.80;56.60
39427;DHT22;25938;48.470;1.486;2023-04-24T01:58:10;16.80;56.70
39427;DHT22;25938;48.470;1.486;2023-04-24T02:00:36;16.70;56.70
39427;DHT22;25938;48.470;1.486;2023-04-24T02:03:01;16.70;56.70
39427;DHT22;25938;48.470;1.486;2023-04-24T02:05:28;16.70;56.70
39427;DHT22;25938;48.470;1.486;2023-04-24T02:07:53;16.70;56.70
39427;DHT22;25938;48.470;1.486;2023-04-24T02:10:19;16.70;56.80
39427;DHT22;25938;48.470;1.486;2023-04-24T02:12:44;16.70;56.80
39427;DHT22;25938;48.470;1.486;2023-04-24T02:15:10;16.70;56.80
39427;DHT22;25938;48.470;1.486;2023-04-24T02:17:37;16.70;56.80
39427;DHT22;25938;48.470;1.486;2023-04-24T02:20:02;16.70;56.80
39427;DHT22;25938;48.470;1.486;2023-04-24T02:22:28;16.70;56.80
39427;DHT22;25938;48.470;1.486;2023-04-24T02:24:55;16.70;56.80
39427;DHT22;25938;48.470;1.486;2023-04-24T02:27:20;16.70;56.80
39427;DHT22;25938;48.470;1.486;2023-04-24T02:29:46;16.70;56.80
39427;DHT22;25938;48.470;1.486;2023-04-24T02:32:12;16.70;56.80
39427;DHT22;25938;48.470;1.486;2023-04-24T02:34:38;16.70;56.80
39427;DHT22;25938;48.470;1.486;2023-04-24T02:37:03;16.60;56.80
39427;DHT22;25938;48.470;1.486;2023-04-24T02:39:29;16.60;56.80
39427;DHT22;25938;48.470;1.486;2023-04-24T02:41:55;16.60;56.80
39427;DHT22;25938;48.470;1.486;2023-04-24T02:44:20;16.60;56.80
39427;DHT22;25938;48.470;1.486;2023-04-24T02:46:47;16.60;56.80
39427;DHT22;25938;48.470;1.486;2023-04-24T02:49:12;16.60;56.80
39427;DHT22;25938;48.470;1.486;2023-04-24T02:51:38;16.60;56.80
39427;DHT22;25938;48.470;1.486;2023-04-24T02:54:07;16.60;56.80
39427;DHT22;25938;48.470;1.486;2023-04-24T02:56:33;16.60;56.90
39427;DHT22;25938;48.470;1.486;2023-04-24T02:58:59;16.60;56.90
39427;DHT22;25938;48.470;1.486;2023-04-24T03:01:24;16.60;56.90
39427;DHT22;25938;48.470;1.486;2023-04-24T03:03:50;16.60;56.90
39427;DHT22;25938;48.470;1.486;2023-04-24T03:06:16;16.60;56.90
39427;DHT22;25938;48.470;1.486;2023-04-24T03:08:41;16.60;57.00
39427;DHT22;25938;48.470;1.486;2023-04-24T03:11:07;16.60;56.90
39427;DHT22;25938;48.470;1.486;2023-04-24T03:13:32;16.60;56.90
39427;DHT22;25938;48.470;1.486;2023-04-24T03:15:58;16.60;57.00
39427;DHT22;25938;48.470;1.486;2023-04-24T03:18:24;16.60;57.00
39427;DHT22;25938;48.470;1.486;2023-04-24T03:20:49;16.50;56.90
39427;DHT22;25938;48.470;1.486;2023-04-24T03:23:15;16.50;57.00
39427;DHT22;25938;48.470;1.486;2023-04-24T03:25:41;16.60;57.00
39427;DHT22;25938;48.470;1.486;2023-04-24T03:28:08;16.60;57.00
39427;DHT22;25938;48.470;1.486;2023-04-24T03:30:33;16.50;57.00
39427;DHT22;25938;48.470;1.486;2023-04-24T03:33:00;16.60;57.10
39427;DHT22;25938;48.470;1.486;2023-04-24T03:35:25;16.50;57.00
39427;DHT22;25938;48.470;1.486;2023-04-24T03:37:51;16.50;57.00
39427;DHT22;25938;48.470;1.486;2023-04-24T03:40:16;16.50;57.00
39427;DHT22;25938;48.470;1.486;2023-04-24T03:42:42;16.50;57.00
39427;DHT22;25938;48.470;1.486;2023-04-24T03:45:08;16.50;57.00
39427;DHT22;25938;48.470;1.486;2023-04-24T03:47:34;16.50;57.10
39427;DHT22;25938;48.470;1.486;2023-04-24T03:50:00;16.50;57.00
39427;DHT22;25938;48.470;1.486;2023-04-24T03:52:25;16.50;57.10
39427;DHT22;25938;48.470;1.486;2023-04-24T03:54:51;16.50;57.10
39427;DHT22;25938;48.470;1.486;2023-04-24T03:57:17;16.50;57.00
39427;DHT22;25938;48.470;1.486;2023-04-24T03:59:42;16.50;57.10
39427;DHT22;25938;48.470;1.486;2023-04-24T04:02:08;16.50;57.00
39427;DHT22;25938;48.470;1.486;2023-04-24T04:04:33;16.50;57.00
39427;DHT22;25938;48.470;1.486;2023-04-24T04:06:59;16.40;56.90
39427;DHT22;25938;48.470;1.486;2023-04-24T04:09:28;16.50;57.00
39427;DHT22;25938;48.470;1.486;2023-04-24T04:11:54;16.40;57.00
39427;DHT22;25938;48.470;1.486;2023-04-24T04:14:21;16.40;57.00
39427;DHT22;25938;48.470;1.486;2023-04-24T04:16:46;16.40;57.00
39427;DHT22;25938;48.470;1.486;2023-04-24T04:19:12;16.40;57.00
39427;DHT22;25938;48.470;1.486;2023-04-24T04:21:38;16.40;57.10
39427;DHT22;25938;48.470;1.486;2023-04-24T04:24:03;16.40;57.10
39427;DHT22;25938;48.470;1.486;2023-04-24T04:26:30;16.40;57.10
39427;DHT22;25938;48.470;1.486;2023-04-24T04:28:58;16.40;57.10
39427;DHT22;25938;48.470;1.486;2023-04-24T04:31:23;16.40;57.10
39427;DHT22;25938;48.470;1.486;2023-04-24T04:33:50;16.40;57.10
39427;DHT22;25938;48.470;1.486;2023-04-24T04:36:15;16.40;57.20
39427;DHT22;25938;48.470;1.486;2023-04-24T04:38:42;16.40;57.20
39427;DHT22;25938;48.470;1.486;2023-04-24T04:41:08;16.30;57.20
39427;DHT22;25938;48.470;1.486;2023-04-24T04:43:34;16.30;57.20
39427;DHT22;25938;48.470;1.486;2023-04-24T04:46:00;16.30;57.30
39427;DHT22;25938;48.470;1.486;2023-04-24T04:48:26;16.30;57.30
39427;DHT22;25938;48.470;1.486;2023-04-24T04:50:52;16.30;57.30
39427;DHT22;25938;48.470;1.486;2023-04-24T04:53:18;16.30;57.40
39427;DHT22;25938;48.470;1.486;2023-04-24T04:55:43;16.30;57.40
39427;DHT22;25938;48.470;1.486;2023-04-24T04:58:09;16.30;57.40
39427;DHT22;25938;48.470;1.486;2023-04-24T05:00:35;16.30;57.50
39427;DHT22;25938;48.470;1.486;2023-04-24T05:03:03;16.30;57.50
39427;DHT22;25938;48.470;1.486;2023-04-24T05:05:29;16.30;57.50
39427;DHT22;25938;48.470;1.486;2023-04-24T05:07:54;16.30;57.50
39427;DHT22;25938;48.470;1.486;2023-04-24T05:10:20;16.30;57.50
39427;DHT22;25938;48.470;1.486;2023-04-24T05:12:46;16.30;57.50
39427;DHT22;25938;48.470;1.486;2023-04-24T05:15:11;16.30;57.50
39427;DHT22;25938;48.470;1.486;2023-04-24T05:17:37;16.20;57.50
39427;DHT22;25938;48.470;1.486;2023-04-24T05:20:05;16.30;57.50
39427;DHT22;25938;48.470;1.486;2023-04-24T05:22:31;16.20;57.50
39427;DHT22;25938;48.470;1.486;2023-04-24T05:24:57;16.20;57.60
39427;DHT22;25938;48.470;1.486;2023-04-24T05:27:23;16.20;57.60
39427;DHT22;25938;48.470;1.486;2023-04-24T05:29:48;16.20;57.60
39427;DHT22;25938;48.470;1.486;2023-04-24T05:32:14;16.20;57.70
39427;DHT22;25938;48.470;1.486;2023-04-24T05:34:40;16.20;57.70
39427;DHT22;25938;48.470;1.486;2023-04-24T05:37:05;16.20;57.70
39427;DHT22;25938;48.470;1.486;2023-04-24T05:39:34;16.20;57.80
39427;DHT22;25938;48.470;1.486;2023-04-24T05:42:00;16.20;57.80
39427;DHT22;25938;48.470;1.486;2023-04-24T05:44:26;16.20;57.90
39427;DHT22;25938;48.470;1.486;2023-04-24T05:46:52;16.20;57.90
39427;DHT22;25938;48.470;1.486;2023-04-24T05:49:18;16.20;57.90
39427;DHT22;25938;48.470;1.486;2023-04-24T05:51:43;16.20;57.90
39427;DHT22;25938;48.470;1.486;2023-04-24T05:54:09;16.20;58.00
39427;DHT22;25938;48.470;1.486;2023-04-24T05:56:37;16.20;58.00
39427;DHT22;25938;48.470;1.486;2023-04-24T05:59:03;16.20;58.00
39427;DHT22;25938;48.470;1.486;2023-04-24T06:01:29;16.20;58.10
39427;DHT22;25938;48.470;1.486;2023-04-24T06:03:55;16.20;58.20
39427;DHT22;25938;48.470;1.486;2023-04-24T06:06:20;16.10;58.10
39427;DHT22;25938;48.470;1.486;2023-04-24T06:08:58;16.20;58.20
39427;DHT22;25938;48.470;1.486;2023-04-24T06:11:24;16.10;58.20
39427;DHT22;25938;48.470;1.486;2023-04-24T06:13:50;16.10;58.20
39427;DHT22;25938;48.470;1.486;2023-04-24T06:16:17;16.10;58.30
39427;DHT22;25938;48.470;1.486;2023-04-24T06:18:42;16.10;58.40
39427;DHT22;25938;48.470;1.486;2023-04-24T06:21:08;16.10;58.40
39427;DHT22;25938;48.470;1.486;2023-04-24T06:23:34;16.10;58.40
39427;DHT22;25938;48.470;1.486;2023-04-24T06:26:00;16.20;58.60
39427;DHT22;25938;48.470;1.486;2023-04-24T06:28:25;16.10;58.70
39427;DHT22;25938;48.470;1.486;2023-04-24T06:30:51;16.10;58.80
39427;DHT22;25938;48.470;1.486;2023-04-24T06:33:17;16.10;58.90
39427;DHT22;25938;48.470;1.486;2023-04-24T06:35:42;16.20;59.00
39427;DHT22;25938;48.470;1.486;2023-04-24T06:38:08;16.10;59.00
39427;DHT22;25938;48.470;1.486;2023-04-24T06:40:34;16.20;59.20
39427;DHT22;25938;48.470;1.486;2023-04-24T06:42:59;16.20;59.30
39427;DHT22;25938;48.470;1.486;2023-04-24T06:45:28;16.10;59.30
39427;DHT22;25938;48.470;1.486;2023-04-24T06:47:54;16.10;59.40
39427;DHT22;25938;48.470;1.486;2023-04-24T06:50:19;16.20;59.60
39427;DHT22;25938;48.470;1.486;2023-04-24T06:52:45;16.10;59.60
39427;DHT22;25938;48.470;1.486;2023-04-24T06:55:11;16.10;59.70
39427;DHT22;25938;48.470;1.486;2023-04-24T06:57:37;16.10;59.70
39427;DHT22;25938;48.470;1.486;2023-04-24T07:00:04;16.10;59.70
39427;DHT22;25938;48.470;1.486;2023-04-24T07:02:31;16.10;59.80
39427;DHT22;25938;48.470;1.486;2023-04-24T07:04:57;16.10;59.80
39427;DHT22;25938;48.470;1.486;2023-04-24T07:07:23;16.10;59.90
39427;DHT22;25938;48.470;1.486;2023-04-24T07:09:49;16.10;60.00
39427;DHT22;25938;48.470;1.486;2023-04-24T07:12:16;16.10;60.00
39427;DHT22;25938;48.470;1.486;2023-04-24T07:14:42;16.10;60.00
39427;DHT22;25938;48.470;1.486;2023-04-24T07:17:08;16.10;60.10
39427;DHT22;25938;48.470;1.486;2023-04-24T07:19:34;16.10;60.20
39427;DHT22;25938;48.470;1.486;2023-04-24T07:22:02;16.10;60.20
39427;DHT22;25938;48.470;1.486;2023-04-24T07:24:29;16.10;60.30
39427;DHT22;25938;48.470;1.486;2023-04-24T07:26:55;16.10;60.40
39427;DHT22;25938;48.470;1.486;2023-04-24T07:29:21;16.10;60.40
39427;DHT22;25938;48.470;1.486;2023-04-24T07:31:46;16.10;60.50
39427;DHT22;25938;48.470;1.486;2023-04-24T07:34:12;16.10;60.50
39427;DHT22;25938;48.470;1.486;2023-04-24T07:36:38;16.10;60.50
39427;DHT22;25938;48.470;1.486;2023-04-24T07:39:04;16.10;60.50
39427;DHT22;25938;48.470;1.486;2023-04-24T07:41:31;16.10;60.50
39427;DHT22;25938;48.470;1.486;2023-04-24T07:43:56;16.10;60.50
39427;DHT22;25938;48.470;1.486;2023-04-24T07:46:22;16.10;60.50
39427;DHT22;25938;48.470;1.486;2023-04-24T07:48:48;16.10;60.50
39427;DHT22;25938;48.470;1.486;2023-04-24T07:51:15;16.10;60.50
39427;DHT22;25938;48.470;1.486;2023-04-24T07:53:41;16.10;60.60
39427;DHT22;25938;48.470;1.486;2023-04-24T07:56:06;16.10;60.60
39427;DHT22;25938;48.470;1.486;2023-04-24T07:58:32;16.10;60.60
39427;DHT22;25938;48.470;1.486;2023-04-24T08:00:58;16.10;60.60
39427;DHT22;25938;48.470;1.486;2023-04-24T08:03:23;16.10;60.60
39427;DHT22;25938;48.470;1.486;2023-04-24T08:05:50;16.10;60.60
39427;DHT22;25938;48.470;1.486;2023-04-24T08:08:16;16.10;60.60
39427;DHT22;25938;48.470;1.486;2023-04-24T08:10:42;16.10;60.60
39427;DHT22;25938;48.470;1.486;2023-04-24T08:13:08;16.10;60.70
39427;DHT22;25938;48.470;1.486;2023-04-24T08:15:40;16.10;60.70
39427;DHT22;25938;48.470;1.486;2023-04-24T08:18:06;16.10;60.70
39427;DHT22;25938;48.470;1.486;2023-04-24T08:20:32;16.10;60.60
39427;DHT22;25938;48.470;1.486;2023-04-24T08:22:58;16.10;60.60
39427;DHT22;25938;48.470;1.486;2023-04-24T08:25:23;16.10;60.60
39427;DHT22;25938;48.470;1.486;2023-04-24T08:27:50;16.10;60.60
39427;DHT22;25938;48.470;1.486;2023-04-24T08:30:16;16.10;60.60
39427;DHT22;25938;48.470;1.486;2023-04-24T08:32:41;16.10;60.50
39427;DHT22;25938;48.470;1.486;2023-04-24T08:35:08;16.10;60.50
39427;DHT22;25938;48.470;1.486;2023-04-24T08:37:34;16.10;60.50
39427;DHT22;25938;48.470;1.486;2023-04-24T08:40:01;16.10;60.50
39427;DHT22;25938;48.470;1.486;2023-04-24T08:42:28;16.10;60.50
39427;DHT22;25938;48.470;1.486;2023-04-24T08:44:54;16.10;60.50
39427;DHT22;25938;48.470;1.486;2023-04-24T08:47:20;16.10;60.50
39427;DHT22;25938;48.470;1.486;2023-04-24T08:49:48;16.10;60.50
39427;DHT22;25938;48.470;1.486;2023-04-24T08:52:15;16.10;60.50
39427;DHT22;25938;48.470;1.486;2023-04-24T08:54:41;16.10;60.50
39427;DHT22;25938;48.470;1.486;2023-04-24T08:57:09;16.10;60.50
39427;DHT22;25938;48.470;1.486;2023-04-24T08:59:38;16.10;60.50
39427;DHT22;25938;48.470;1.486;2023-04-24T09:02:04;16.10;60.50
39427;DHT22;25938;48.470;1.486;2023-04-24T09:04:30;16.10;60.50
39427;DHT22;25938;48.470;1.486;2023-04-24T09:06:58;16.10;60.50
39427;DHT22;25938;48.470;1.486;2023-04-24T09:09:25;16.10;60.50
39427;DHT22;25938;48.470;1.486;2023-04-24T09:11:52;16.10;60.50
39427;DHT22;25938;48.470;1.486;2023-04-24T09:14:20;16.10;60.50
39427;DHT22;25938;48.470;1.486;2023-04-24T09:16:46;16.10;60.50
39427;DHT22;25938;48.470;1.486;2023-04-24T09:19:13;16.10;60.50
39427;DHT22;25938;48.470;1.486;2023-04-24T09:21:38;16.10;60.60
39427;DHT22;25938;48.470;1.486;2023-04-24T09:24:07;16.10;60.60
39427;DHT22;25938;48.470;1.486;2023-04-24T09:26:35;16.10;60.60
39427;DHT22;25938;48.470;1.486;2023-04-24T09:29:01;16.10;60.60
39427;DHT22;25938;48.470;1.486;2023-04-24T09:31:28;16.10;60.70
39427;DHT22;25938;48.470;1.486;2023-04-24T09:39:07;16.10;60.70
39427;DHT22;25938;48.470;1.486;2023-04-24T09:41:33;16.10;60.70
39427;DHT22;25938;48.470;1.486;2023-04-24T09:44:33;16.10;60.70
39427;DHT22;25938;48.470;1.486;2023-04-24T09:47:00;16.10;60.90
39427;DHT22;25938;48.470;1.486;2023-04-24T09:49:30;16.10;60.90
39427;DHT22;25938;48.470;1.486;2023-04-24T09:52:09;16.10;60.90
39427;DHT22;25938;48.470;1.486;2023-04-24T09:54:36;16.10;60.90
39427;DHT22;25938;48.470;1.486;2023-04-24T09:57:02;16.10;61.00
39427;DHT22;25938;48.470;1.486;2023-04-24T09:59:28;16.10;61.00
39427;DHT22;25938;48.470;1.486;2023-04-24T10:01:54;16.10;61.00
39427;DHT22;25938;48.470;1.486;2023-04-24T10:04:25;16.10;61.00
39427;DHT22;25938;48.470;1.486;2023-04-24T10:06:54;16.10;60.90
39427;DHT22;25938;48.470;1.486;2023-04-24T10:09:25;16.10;60.90
39427;DHT22;25938;48.470;1.486;2023-04-24T10:11:53;16.10;60.80
39427;DHT22;25938;48.470;1.486;2023-04-24T10:14:21;16.10;60.80
39427;DHT22;25938;48.470;1.486;2023-04-24T10:16:47;16.10;60.80
39427;DHT22;25938;48.470;1.486;2023-04-24T10:19:16;16.10;60.80
39427;DHT22;25938;48.470;1.486;2023-04-24T10:21:46;16.10;60.70
39427;DHT22;25938;48.470;1.486;2023-04-24T10:24:13;16.10;60.70
39427;DHT22;25938;48.470;1.486;2023-04-24T10:26:40;16.10;60.60
39427;DHT22;25938;48.470;1.486;2023-04-24T10:29:06;16.20;60.50
39427;DHT22;25938;48.470;1.486;2023-04-24T10:31:36;16.20;60.50
39427;DHT22;25938;48.470;1.486;2023-04-24T10:34:03;16.10;60.30
39427;DHT22;25938;48.470;1.486;2023-04-24T10:36:30;16.10;60.30
39427;DHT22;25938;48.470;1.486;2023-04-24T10:38:59;16.10;60.20
39427;DHT22;25938;48.470;1.486;2023-04-24T10:41:26;16.20;60.20
39427;DHT22;25938;48.470;1.486;2023-04-24T10:44:24;16.20;60.10
39427;DHT22;25938;48.470;1.486;2023-04-24T10:46:53;16.20;59.90
39427;DHT22;25938;48.470;1.486;2023-04-24T10:49:28;16.20;59.90
39427;DHT22;25938;48.470;1.486;2023-04-24T10:52:00;16.10;59.80
39427;DHT22;25938;48.470;1.486;2023-04-24T10:54:49;16.20;59.90
39427;DHT22;25938;48.470;1.486;2023-04-24T11:02:36;16.20;59.80
39427;DHT22;25938;48.470;1.486;2023-04-24T11:05:06;16.20;59.80
39427;DHT22;25938;48.470;1.486;2023-04-24T11:10:43;16.20;59.70
39427;DHT22;25938;48.470;1.486;2023-04-24T11:13:09;16.20;59.80
39427;DHT22;25938;48.470;1.486;2023-04-24T11:15:35;16.20;59.90
39427;DHT22;25938;48.470;1.486;2023-04-24T11:18:00;16.10;59.80
39427;DHT22;25938;48.470;1.486;2023-04-24T11:20:26;16.20;59.90
39427;DHT22;25938;48.470;1.486;2023-04-24T11:22:53;16.20;59.90
39427;DHT22;25938;48.470;1.486;2023-04-24T11:25:21;16.20;59.90
39427;DHT22;25938;48.470;1.486;2023-04-24T11:27:47;16.20;59.80
39427;DHT22;25938;48.470;1.486;2023-04-24T11:30:19;16.20;59.80
39427;DHT22;25938;48.470;1.486;2023-04-24T11:32:50;16.20;59.80
39427;DHT22;25938;48.470;1.486;2023-04-24T11:35:20;16.20;59.60
39427;DHT22;25938;48.470;1.486;2023-04-24T11:37:54;16.20;59.60
39427;DHT22;25938;48.470;1.486;2023-04-24T11:40:21;16.20;59.50
39427;DHT22;25938;48.470;1.486;2023-04-24T11:42:52;16.20;59.50
39427;DHT22;25938;48.470;1.486;2023-04-24T11:45:27;16.20;59.40
39427;DHT22;25938;48.470;1.486;2023-04-24T11:47:53;16.20;59.30
39427;DHT22;25938;48.470;1.486;2023-04-24T11:50:22;16.20;59.40
39427;DHT22;25938;48.470;1.486;2023-04-24T11:52:49;16.20;59.40
39427;DHT22;25938;48.470;1.486;2023-04-24T11:57:51;16.30;59.40
39427;DHT22;25938;48.470;1.486;2023-04-24T12:00:20;16.30;59.50
39427;DHT22;25938;48.470;1.486;2023-04-24T12:02:47;16.30;59.50
39427;DHT22;25938;48.470;1.486;2023-04-24T12:05:23;16.20;59.40
39427;DHT22;25938;48.470;1.486;2023-04-24T12:07:49;16.30;59.50
39427;DHT22;25938;48.470;1.486;2023-04-24T12:10:20;16.30;59.40
39427;DHT22;25938;48.470;1.486;2023-04-24T12:12:46;16.30;59.30
39427;DHT22;25938;48.470;1.486;2023-04-24T12:15:12;16.30;59.20
39427;DHT22;25938;48.470;1.486;2023-04-24T12:17:41;16.30;59.20
39427;DHT22;25938;48.470;1.486;2023-04-24T12:20:08;16.30;59.10
39427;DHT22;25938;48.470;1.486;2023-04-24T12:25:11;16.30;58.90
39427;DHT22;25938;48.470;1.486;2023-04-24T12:27:37;16.30;59.00
39427;DHT22;25938;48.470;1.486;2023-04-24T12:30:05;16.30;58.90
39427;DHT22;25938;48.470;1.486;2023-04-24T12:32:31;16.30;58.80
39427;DHT22;25938;48.470;1.486;2023-04-24T12:34:57;16.30;58.80
39427;DHT22;25938;48.470;1.486;2023-04-24T12:37:24;16.30;58.80
39427;DHT22;25938;48.470;1.486;2023-04-24T12:40:07;16.30;58.80
39427;DHT22;25938;48.470;1.486;2023-04-24T12:42:34;16.30;58.80
39427;DHT22;25938;48.470;1.486;2023-04-24T12:45:04;16.30;58.80
39427;DHT22;25938;48.470;1.486;2023-04-24T12:47:32;16.30;58.80
39427;DHT22;25938;48.470;1.486;2023-04-24T12:49:58;16.30;58.80
39427;DHT22;25938;48.470;1.486;2023-04-24T12:52:25;16.30;58.80
39427;DHT22;25938;48.470;1.486;2023-04-24T12:54:56;16.40;58.70
39427;DHT22;25938;48.470;1.486;2023-04-24T12:57:23;16.40;58.60
39427;DHT22;25938;48.470;1.486;2023-04-24T12:59:48;16.40;58.60
39427;DHT22;25938;48.470;1.486;2023-04-24T13:02:14;16.40;58.60
39427;DHT22;25938;48.470;1.486;2023-04-24T13:04:44;16.40;58.50
39427;DHT22;25938;48.470;1.486;2023-04-24T13:07:11;16.40;58.40
39427;DHT22;25938;48.470;1.486;2023-04-24T13:09:38;16.40;58.40
39427;DHT22;25938;48.470;1.486;2023-04-24T13:12:03;16.40;58.30
39427;DHT22;25938;48.470;1.486;2023-04-24T13:14:31;16.40;58.40
39427;DHT22;25938;48.470;1.486;2023-04-24T13:16:56;16.40;58.40
39427;DHT22;25938;48.470;1.486;2023-04-24T13:19:24;16.40;58.30
39427;DHT22;25938;48.470;1.486;2023-04-24T13:21:51;16.40;58.30
39427;DHT22;25938;48.470;1.486;2023-04-24T13:24:16;16.40;58.10
39427;DHT22;25938;48.470;1.486;2023-04-24T13:26:42;16.40;58.00
39427;DHT22;25938;48.470;1.486;2023-04-24T13:29:08;16.40;57.90
39427;DHT22;25938;48.470;1.486;2023-04-24T13:31:34;16.40;57.80
39427;DHT22;25938;48.470;1.486;2023-04-24T13:34:01;16.40;57.90
39427;DHT22;25938;48.470;1.486;2023-04-24T13:36:27;16.40;57.80
39427;DHT22;25938;48.470;1.486;2023-04-24T13:38:53;16.40;57.70
39427;DHT22;25938;48.470;1.486;2023-04-24T13:41:18;16.40;57.70
39427;DHT22;25938;48.470;1.486;2023-04-24T13:43:44;16.50;57.80
39427;DHT22;25938;48.470;1.486;2023-04-24T13:46:10;16.40;57.70
39427;DHT22;25938;48.470;1.486;2023-04-24T13:48:36;16.40;57.70
39427;DHT22;25938;48.470;1.486;2023-04-24T13:51:01;16.50;57.70
39427;DHT22;25938;48.470;1.486;2023-04-24T13:53:27;16.50;57.60
39427;DHT22;25938;48.470;1.486;2023-04-24T13:55:53;16.50;57.40
39427;DHT22;25938;48.470;1.486;2023-04-24T13:58:18;16.50;57.30
39427;DHT22;25938;48.470;1.486;2023-04-24T14:00:44;16.50;57.30
39427;DHT22;25938;48.470;1.486;2023-04-24T14:03:10;16.50;57.30
39427;DHT22;25938;48.470;1.486;2023-04-24T14:05:36;16.50;57.30
39427;DHT22;25938;48.470;1.486;2023-04-24T14:08:01;16.50;57.30
39427;DHT22;25938;48.470;1.486;2023-04-24T14:10:27;16.50;57.20
39427;DHT22;25938;48.470;1.486;2023-04-24T14:12:53;16.50;57.20
39427;DHT22;25938;48.470;1.486;2023-04-24T14:15:19;16.50;57.00
39427;DHT22;25938;48.470;1.486;2023-04-24T14:17:45;16.50;57.10
39427;DHT22;25938;48.470;1.486;2023-04-24T14:20:12;16.50;57.10
39427;DHT22;25938;48.470;1.486;2023-04-24T14:22:37;16.50;57.10
39427;DHT22;25938;48.470;1.486;2023-04-24T14:25:04;16.50;57.20
39427;DHT22;25938;48.470;1.486;2023-04-24T14:27:31;16.50;57.10
39427;DHT22;25938;48.470;1.486;2023-04-24T14:29:57;16.50;57.10
39427;DHT22;25938;48.470;1.486;2023-04-24T14:32:23;16.60;57.10
39427;DHT22;25938;48.470;1.486;2023-04-24T14:34:49;16.50;57.10
39427;DHT22;25938;48.470;1.486;2023-04-24T14:37:14;16.60;57.20
39427;DHT22;25938;48.470;1.486;2023-04-24T14:39:40;16.60;57.20
39427;DHT22;25938;48.470;1.486;2023-04-24T14:42:06;16.60;57.20
39427;DHT22;25938;48.470;1.486;2023-04-24T14:44:32;16.60;57.20
39427;DHT22;25938;48.470;1.486;2023-04-24T14:46:58;16.60;57.30
39427;DHT22;25938;48.470;1.486;2023-04-24T14:49:24;16.60;57.40
39427;DHT22;25938;48.470;1.486;2023-04-24T14:51:49;16.60;57.40
39427;DHT22;25938;48.470;1.486;2023-04-24T14:54:15;16.60;57.30
39427;DHT22;25938;48.470;1.486;2023-04-24T14:56:41;16.60;57.30
39427;DHT22;25938;48.470;1.486;2023-04-24T14:59:08;16.60;57.40
39427;DHT22;25938;48.470;1.486;2023-04-24T15:01:33;16.60;57.40
39427;DHT22;25938;48.470;1.486;2023-04-24T15:03:59;16.70;57.30
39427;DHT22;25938;48.470;1.486;2023-04-24T15:06:25;16.60;57.10
39427;DHT22;25938;48.470;1.486;2023-04-24T15:08:50;16.60;57.00
39427;DHT22;25938;48.470;1.486;2023-04-24T15:11:17;16.60;56.90
39427;DHT22;25938;48.470;1.486;2023-04-24T15:13:42;16.60;56.90
39427;DHT22;25938;48.470;1.486;2023-04-24T15:16:10;16.60;56.90
39427;DHT22;25938;48.470;1.486;2023-04-24T15:18:35;16.70;56.90
39427;DHT22;25938;48.470;1.486;2023-04-24T15:21:01;16.70;56.90
39427;DHT22;25938;48.470;1.486;2023-04-24T15:23:27;16.70;56.80
39427;DHT22;25938;48.470;1.486;2023-04-24T15:25:52;16.70;56.70
39427;DHT22;25938;48.470;1.486;2023-04-24T15:28:18;16.70;56.70
39427;DHT22;25938;48.470;1.486;2023-04-24T15:30:44;16.70;56.60
39427;DHT22;25938;48.470;1.486;2023-04-24T15:33:09;16.70;56.40
39427;DHT22;25938;48.470;1.486;2023-04-24T15:35:35;16.70;56.30
39427;DHT22;25938;48.470;1.486;2023-04-24T15:38:01;16.70;56.20
39427;DHT22;25938;48.470;1.486;2023-04-24T15:40:27;16.70;56.20
39427;DHT22;25938;48.470;1.486;2023-04-24T15:42:53;16.70;56.10
39427;DHT22;25938;48.470;1.486;2023-04-24T15:45:18;16.70;56.00